sensor_id;sensor_type;location;lat;lon;timestamp;P1;durP1;ratioP1;P2;durP2;ratioP2
23322;SDS011;11833;52.554;13.554;2023-08-30T00:03:00;1.88;;;1.70;;
23322;SDS011;11833;52.554;13.554;2023-08-30T00:05:26;2.55;;;1.80;;
23322;SDS011;11833;52.554;13.554;2023-08-30T00:07:52;3.67;;;1.83;;
23322;SDS011;11833;52.554;13.554;2023-08-30T00:10:19;4.03;;;1.80;;
23322;SDS011;11833;52.554;13.554;2023-08-30T00:12:44;3.00;;;1.60;;
23322;SDS011;11833;52.554;13.554;2023-08-30T00:15:10;1.92;;;1.73;;
23322;SDS011;11833;52.554;13.554;2023-08-30T00:17:36;3.05;;;2.00;;
23322;SDS011;11833;52.554;13.554;2023-08-30T00:20:02;2.72;;;1.80;;
23322;SDS011;11833;52.554;13.554;2023-08-30T00:22:28;3.45;;;1.70;;
23322;SDS011;11833;52.554;13.554;2023-08-30T00:24:54;3.58;;;1.60;;
23322;SDS011;11833;52.554;13.554;2023-08-30T00:27:20;3.05;;;2.00;;
23322;SDS011;11833;52.554;13.554;2023-08-30T00:29:46;5.00;;;1.95;;
23322;SDS011;11833;52.554;13.554;2023-08-30T00:32:11;3.97;;;1.60;;
23322;SDS011;11833;52.554;13.554;2023-08-30T00:34:38;2.85;;;1.58;;
23322;SDS011;11833;52.554;13.554;2023-08-30T00:37:04;1.98;;;1.70;;
23322;SDS011;11833;52.554;13.554;2023-08-30T00:39:29;3.20;;;1.50;;
23322;SDS011;11833;52.554;13.554;2023-08-30T00:41:55;0.90;;;0.90;;
23322;SDS011;11833;52.554;13.554;2023-08-30T00:44:21;1.70;;;1.60;;
23322;SDS011;11833;52.554;13.554;2023-08-30T00:46:47;1.40;;;1.30;;
23322;SDS011;11833;52.554;13.554;2023-08-30T00:49:13;2.30;;;1.20;;
23322;SDS011;11833;52.554;13.554;2023-08-30T00:51:39;3.15;;;1.83;;
23322;SDS011;11833;52.554;13.554;2023-08-30T00:54:05;3.67;;;1.45;;
23322;SDS011;11833;52.554;13.554;2023-08-30T00:56:32;1.77;;;1.33;;
23322;SDS011;11833;52.554;13.554;2023-08-30T00:58:58;2.58;;;1.33;;
23322;SDS011;11833;52.554;13.554;2023-08-30T01:01:24;2.15;;;1.10;;
23322;SDS011;11833;52.554;13.554;2023-08-30T01:03:51;1.63;;;1.00;;
23322;SDS011;11833;52.554;13.554;2023-08-30T01:06:16;2.70;;;2.45;;
23322;SDS011;11833;52.554;13.554;2023-08-30T01:08:42;2.97;;;1.55;;
23322;SDS011;11833;52.554;13.554;2023-08-30T01:16:40;3.55;;;1.77;;
23322;SDS011;11833;52.554;13.554;2023-08-30T01:22:43;4.82;;;2.92;;
23322;SDS011;11833;52.554;13.554;2023-08-30T01:28:06;2.50;;;2.28;;
23322;SDS011;11833;52.554;13.554;2023-08-30T01:30:34;3.97;;;1.42;;
23322;SDS011;11833;52.554;13.554;2023-08-30T01:33:03;2.45;;;1.80;;
23322;SDS011;11833;52.554;13.554;2023-08-30T01:35:30;2.20;;;1.63;;
23322;SDS011;11833;52.554;13.554;2023-08-30T01:38:02;2.13;;;1.55;;
23322;SDS011;11833;52.554;13.554;2023-08-30T01:40:30;2.15;;;1.73;;
23322;SDS011;11833;52.554;13.554;2023-08-30T01:43:02;3.03;;;1.70;;
23322;SDS011;11833;52.554;13.554;2023-08-30T01:45:30;2.03;;;1.70;;
23322;SDS011;11833;52.554;13.554;2023-08-30T01:48:00;3.60;;;1.08;;
23322;SDS011;11833;52.554;13.554;2023-08-30T01:50:26;2.85;;;1.42;;
23322;SDS011;11833;52.554;13.554;2023-08-30T01:52:53;3.50;;;1.73;;
23322;SDS011;11833;52.554;13.554;2023-08-30T01:55:21;3.72;;;1.63;;
23322;SDS011;11833;52.554;13.554;2023-08-30T01:57:48;3.65;;;1.55;;
23322;SDS011;11833;52.554;13.554;2023-08-30T02:00:14;2.38;;;2.17;;
23322;SDS011;11833;52.554;13.554;2023-08-30T02:02:40;2.78;;;1.83;;
23322;SDS011;11833;52.554;13.554;2023-08-30T02:05:06;2.85;;;1.67;;
23322;SDS011;11833;52.554;13.554;2023-08-30T02:07:38;3.35;;;2.17;;
23322;SDS011;11833;52.554;13.554;2023-08-30T02:10:13;5.13;;;2.05;;
23322;SDS011;11833;52.554;13.554;2023-08-30T02:12:47;2.70;;;2.10;;
23322;SDS011;11833;52.554;13.554;2023-08-30T02:15:15;3.97;;;2.42;;
23322;SDS011;11833;52.554;13.554;2023-08-30T02:17:45;5.75;;;2.33;;
23322;SDS011;11833;52.554;13.554;2023-08-30T02:20:13;3.58;;;2.40;;
23322;SDS011;11833;52.554;13.554;2023-08-30T02:22:39;3.97;;;1.90;;
23322;SDS011;11833;52.554;13.554;2023-08-30T02:25:05;5.95;;;2.88;;
23322;SDS011;11833;52.554;13.554;2023-08-30T02:27:32;4.97;;;2.13;;
23322;SDS011;11833;52.554;13.554;2023-08-30T02:29:59;4.45;;;1.83;;
23322;SDS011;11833;52.554;13.554;2023-08-30T02:32:25;2.63;;;2.03;;
23322;SDS011;11833;52.554;13.554;2023-08-30T02:34:52;3.15;;;2.35;;
23322;SDS011;11833;52.554;13.554;2023-08-30T02:37:18;7.13;;;2.28;;
23322;SDS011;11833;52.554;13.554;2023-08-30T02:39:44;4.13;;;2.10;;
23322;SDS011;11833;52.554;13.554;2023-08-30T02:42:10;2.65;;;2.30;;
23322;SDS011;11833;52.554;13.554;2023-08-30T02:44:36;2.35;;;1.90;;
23322;SDS011;11833;52.554;13.554;2023-08-30T02:47:02;3.33;;;1.88;;
23322;SDS011;11833;52.554;13.554;2023-08-30T02:49:28;2.20;;;2.00;;
23322;SDS011;11833;52.554;13.554;2023-08-30T02:51:54;7.90;;;3.47;;
23322;SDS011;11833;52.554;13.554;2023-08-30T02:54:19;6.95;;;1.92;;
23322;SDS011;11833;52.554;13.554;2023-08-30T02:56:47;5.28;;;3.30;;
23322;SDS011;11833;52.554;13.554;2023-08-30T02:59:13;3.05;;;2.05;;
23322;SDS011;11833;52.554;13.554;2023-08-30T03:01:39;4.85;;;2.60;;
23322;SDS011;11833;52.554;13.554;2023-08-30T03:04:05;2.60;;;2.00;;
23322;SDS011;11833;52.554;13.554;2023-08-30T03:06:32;4.72;;;2.60;;
23322;SDS011;11833;52.554;13.554;2023-08-30T03:08:59;3.35;;;2.50;;
23322;SDS011;11833;52.554;13.554;2023-08-30T03:11:26;3.08;;;2.65;;
23322;SDS011;11833;52.554;13.554;2023-08-30T03:13:53;2.85;;;2.10;;
23322;SDS011;11833;52.554;13.554;2023-08-30T03:16:19;4.03;;;2.92;;
23322;SDS011;11833;52.554;13.554;2023-08-30T03:18:46;2.83;;;2.45;;
23322;SDS011;11833;52.554;13.554;2023-08-30T03:21:12;2.50;;;1.77;;
23322;SDS011;11833;52.554;13.554;2023-08-30T03:23:39;3.50;;;2.65;;
23322;SDS011;11833;52.554;13.554;2023-08-30T03:28:39;5.15;;;3.17;;
23322;SDS011;11833;52.554;13.554;2023-08-30T03:33:43;4.78;;;2.90;;
23322;SDS011;11833;52.554;13.554;2023-08-30T03:36:10;5.40;;;3.55;;
23322;SDS011;11833;52.554;13.554;2023-08-30T03:38:37;5.40;;;3.40;;
23322;SDS011;11833;52.554;13.554;2023-08-30T03:41:04;4.55;;;3.08;;
23322;SDS011;11833;52.554;13.554;2023-08-30T03:43:31;7.65;;;3.25;;
23322;SDS011;11833;52.554;13.554;2023-08-30T03:45:58;4.32;;;2.88;;
23322;SDS011;11833;52.554;13.554;2023-08-30T03:48:25;4.28;;;3.55;;
23322;SDS011;11833;52.554;13.554;2023-08-30T03:50:52;4.53;;;3.05;;
23322;SDS011;11833;52.554;13.554;2023-08-30T03:53:20;4.25;;;2.83;;
23322;SDS011;11833;52.554;13.554;2023-08-30T03:55:45;5.65;;;2.80;;
23322;SDS011;11833;52.554;13.554;2023-08-30T03:58:11;5.68;;;2.70;;
23322;SDS011;11833;52.554;13.554;2023-08-30T04:00:37;4.97;;;2.38;;
23322;SDS011;11833;52.554;13.554;2023-08-30T04:03:04;5.43;;;3.55;;
23322;SDS011;11833;52.554;13.554;2023-08-30T04:05:35;4.88;;;3.05;;
23322;SDS011;11833;52.554;13.554;2023-08-30T04:08:02;3.60;;;2.00;;
23322;SDS011;11833;52.554;13.554;2023-08-30T04:10:37;7.88;;;5.78;;
23322;SDS011;11833;52.554;13.554;2023-08-30T04:13:04;6.53;;;2.75;;
23322;SDS011;11833;52.554;13.554;2023-08-30T04:15:34;3.80;;;2.60;;
23322;SDS011;11833;52.554;13.554;2023-08-30T04:18:01;4.60;;;2.75;;
23322;SDS011;11833;52.554;13.554;2023-08-30T04:20:28;4.18;;;3.03;;
23322;SDS011;11833;52.554;13.554;2023-08-30T04:22:53;3.70;;;2.50;;
23322;SDS011;11833;52.554;13.554;2023-08-30T04:25:21;4.45;;;2.72;;
23322;SDS011;11833;52.554;13.554;2023-08-30T04:27:46;4.53;;;2.40;;
23322;SDS011;11833;52.554;13.554;2023-08-30T04:30:12;5.18;;;3.15;;
23322;SDS011;11833;52.554;13.554;2023-08-30T04:32:38;4.72;;;2.85;;
23322;SDS011;11833;52.554;13.554;2023-08-30T04:35:05;4.65;;;2.50;;
23322;SDS011;11833;52.554;13.554;2023-08-30T04:37:31;3.10;;;2.20;;
23322;SDS011;11833;52.554;13.554;2023-08-30T04:39:57;5.72;;;3.80;;
23322;SDS011;11833;52.554;13.554;2023-08-30T04:42:23;3.70;;;2.80;;
23322;SDS011;11833;52.554;13.554;2023-08-30T04:44:49;3.10;;;2.80;;
23322;SDS011;11833;52.554;13.554;2023-08-30T04:47:16;3.92;;;2.83;;
23322;SDS011;11833;52.554;13.554;2023-08-30T04:49:42;5.35;;;3.72;;
23322;SDS011;11833;52.554;13.554;2023-08-30T04:52:08;5.65;;;4.00;;
23322;SDS011;11833;52.554;13.554;2023-08-30T04:54:33;4.57;;;3.20;;
23322;SDS011;11833;52.554;13.554;2023-08-30T04:56:59;6.35;;;4.18;;
23322;SDS011;11833;52.554;13.554;2023-08-30T04:59:25;3.88;;;3.28;;
23322;SDS011;11833;52.554;13.554;2023-08-30T05:01:51;6.93;;;4.88;;
23322;SDS011;11833;52.554;13.554;2023-08-30T05:04:17;3.53;;;2.47;;
23322;SDS011;11833;52.554;13.554;2023-08-30T05:06:43;4.35;;;2.80;;
23322;SDS011;11833;52.554;13.554;2023-08-30T05:09:09;6.63;;;4.28;;
23322;SDS011;11833;52.554;13.554;2023-08-30T05:11:34;7.03;;;2.95;;
23322;SDS011;11833;52.554;13.554;2023-08-30T05:14:00;10.05;;;7.38;;
23322;SDS011;11833;52.554;13.554;2023-08-30T05:16:26;4.68;;;3.25;;
23322;SDS011;11833;52.554;13.554;2023-08-30T05:18:52;4.38;;;2.83;;
23322;SDS011;11833;52.554;13.554;2023-08-30T05:21:17;4.20;;;3.22;;
23322;SDS011;11833;52.554;13.554;2023-08-30T05:23:43;4.25;;;2.72;;
23322;SDS011;11833;52.554;13.554;2023-08-30T05:26:10;4.80;;;3.35;;
23322;SDS011;11833;52.554;13.554;2023-08-30T05:28:41;10.48;;;5.85;;
23322;SDS011;11833;52.554;13.554;2023-08-30T05:31:08;4.32;;;2.88;;
23322;SDS011;11833;52.554;13.554;2023-08-30T05:33:33;7.38;;;3.47;;
23322;SDS011;11833;52.554;13.554;2023-08-30T05:35:59;5.32;;;3.17;;
23322;SDS011;11833;52.554;13.554;2023-08-30T05:38:25;6.38;;;3.58;;
23322;SDS011;11833;52.554;13.554;2023-08-30T05:40:51;7.82;;;3.83;;
23322;SDS011;11833;52.554;13.554;2023-08-30T05:43:16;3.30;;;2.20;;
23322;SDS011;11833;52.554;13.554;2023-08-30T05:45:43;3.42;;;3.08;;
23322;SDS011;11833;52.554;13.554;2023-08-30T05:48:08;6.85;;;2.67;;
23322;SDS011;11833;52.554;13.554;2023-08-30T05:50:34;5.65;;;2.58;;
23322;SDS011;11833;52.554;13.554;2023-08-30T05:53:00;4.25;;;2.53;;
23322;SDS011;11833;52.554;13.554;2023-08-30T05:55:27;13.20;;;4.28;;
23322;SDS011;11833;52.554;13.554;2023-08-30T05:57:53;6.40;;;3.50;;
23322;SDS011;11833;52.554;13.554;2023-08-30T06:00:19;5.97;;;3.25;;
23322;SDS011;11833;52.554;13.554;2023-08-30T06:02:45;4.30;;;3.25;;
23322;SDS011;11833;52.554;13.554;2023-08-30T06:05:11;5.63;;;3.80;;
23322;SDS011;11833;52.554;13.554;2023-08-30T06:07:36;4.60;;;2.08;;
23322;SDS011;11833;52.554;13.554;2023-08-30T06:10:02;3.95;;;2.53;;
23322;SDS011;11833;52.554;13.554;2023-08-30T06:12:29;5.80;;;2.75;;
23322;SDS011;11833;52.554;13.554;2023-08-30T06:14:55;5.30;;;3.10;;
23322;SDS011;11833;52.554;13.554;2023-08-30T06:17:21;3.33;;;2.40;;
23322;SDS011;11833;52.554;13.554;2023-08-30T06:19:47;4.45;;;2.83;;
23322;SDS011;11833;52.554;13.554;2023-08-30T06:22:13;3.97;;;2.70;;
23322;SDS011;11833;52.554;13.554;2023-08-30T06:24:39;3.40;;;2.63;;
23322;SDS011;11833;52.554;13.554;2023-08-30T06:27:05;4.53;;;2.40;;
23322;SDS011;11833;52.554;13.554;2023-08-30T06:29:30;2.60;;;2.40;;
23322;SDS011;11833;52.554;13.554;2023-08-30T06:31:57;2.55;;;2.33;;
23322;SDS011;11833;52.554;13.554;2023-08-30T06:34:23;4.85;;;2.55;;
23322;SDS011;11833;52.554;13.554;2023-08-30T06:36:49;4.18;;;2.03;;
23322;SDS011;11833;52.554;13.554;2023-08-30T06:39:15;4.68;;;1.42;;
23322;SDS011;11833;52.554;13.554;2023-08-30T06:41:42;2.95;;;1.80;;
23322;SDS011;11833;52.554;13.554;2023-08-30T06:44:08;2.70;;;1.88;;
23322;SDS011;11833;52.554;13.554;2023-08-30T06:46:34;3.22;;;1.70;;
23322;SDS011;11833;52.554;13.554;2023-08-30T06:48:59;4.15;;;2.80;;
23322;SDS011;11833;52.554;13.554;2023-08-30T06:51:25;7.97;;;4.20;;
23322;SDS011;11833;52.554;13.554;2023-08-30T06:53:51;6.55;;;3.42;;
23322;SDS011;11833;52.554;13.554;2023-08-30T06:56:16;4.47;;;2.60;;
23322;SDS011;11833;52.554;13.554;2023-08-30T06:58:42;5.78;;;2.13;;
23322;SDS011;11833;52.554;13.554;2023-08-30T07:01:08;5.72;;;2.45;;
23322;SDS011;11833;52.554;13.554;2023-08-30T07:03:33;7.55;;;4.90;;
23322;SDS011;11833;52.554;13.554;2023-08-30T07:05:59;6.05;;;4.05;;
23322;SDS011;11833;52.554;13.554;2023-08-30T07:08:25;8.48;;;3.05;;
23322;SDS011;11833;52.554;13.554;2023-08-30T07:10:51;4.97;;;2.30;;
23322;SDS011;11833;52.554;13.554;2023-08-30T07:13:17;4.07;;;2.22;;
23322;SDS011;11833;52.554;13.554;2023-08-30T07:15:43;3.47;;;2.70;;
23322;SDS011;11833;52.554;13.554;2023-08-30T07:18:09;4.43;;;3.60;;
23322;SDS011;11833;52.554;13.554;2023-08-30T07:20:35;2.42;;;1.80;;
23322;SDS011;11833;52.554;13.554;2023-08-30T07:23:04;5.35;;;3.40;;
23322;SDS011;11833;52.554;13.554;2023-08-30T07:25:30;4.55;;;3.05;;
23322;SDS011;11833;52.554;13.554;2023-08-30T07:27:58;4.28;;;1.67;;
23322;SDS011;11833;52.554;13.554;2023-08-30T07:30:25;4.35;;;2.53;;
23322;SDS011;11833;52.554;13.554;2023-08-30T07:32:51;6.68;;;3.45;;
23322;SDS011;11833;52.554;13.554;2023-08-30T07:35:16;3.38;;;2.63;;
23322;SDS011;11833;52.554;13.554;2023-08-30T07:37:42;2.00;;;1.33;;
23322;SDS011;11833;52.554;13.554;2023-08-30T07:40:08;3.33;;;1.73;;
23322;SDS011;11833;52.554;13.554;2023-08-30T07:42:35;3.75;;;2.53;;
23322;SDS011;11833;52.554;13.554;2023-08-30T07:45:00;4.45;;;2.53;;
23322;SDS011;11833;52.554;13.554;2023-08-30T07:47:26;4.40;;;1.50;;
23322;SDS011;11833;52.554;13.554;2023-08-30T07:49:52;6.63;;;2.42;;
23322;SDS011;11833;52.554;13.554;2023-08-30T07:52:17;7.00;;;2.55;;
23322;SDS011;11833;52.554;13.554;2023-08-30T07:54:43;6.32;;;4.20;;
23322;SDS011;11833;52.554;13.554;2023-08-30T07:57:09;4.63;;;2.35;;
23322;SDS011;11833;52.554;13.554;2023-08-30T07:59:35;3.78;;;2.53;;
23322;SDS011;11833;52.554;13.554;2023-08-30T08:02:02;6.47;;;2.92;;
23322;SDS011;11833;52.554;13.554;2023-08-30T08:04:31;4.78;;;3.53;;
23322;SDS011;11833;52.554;13.554;2023-08-30T08:06:57;4.65;;;3.15;;
23322;SDS011;11833;52.554;13.554;2023-08-30T08:09:23;2.72;;;1.80;;
23322;SDS011;11833;52.554;13.554;2023-08-30T08:11:49;2.90;;;2.50;;
23322;SDS011;11833;52.554;13.554;2023-08-30T08:14:15;4.85;;;3.05;;
23322;SDS011;11833;52.554;13.554;2023-08-30T08:16:41;4.68;;;3.20;;
23322;SDS011;11833;52.554;13.554;2023-08-30T08:19:07;3.17;;;2.78;;
23322;SDS011;11833;52.554;13.554;2023-08-30T08:21:35;3.45;;;2.28;;
23322;SDS011;11833;52.554;13.554;2023-08-30T08:24:01;4.68;;;2.97;;
23322;SDS011;11833;52.554;13.554;2023-08-30T08:26:27;4.28;;;2.60;;
23322;SDS011;11833;52.554;13.554;2023-08-30T08:28:53;4.70;;;2.72;;
23322;SDS011;11833;52.554;13.554;2023-08-30T08:31:20;3.53;;;2.70;;
23322;SDS011;11833;52.554;13.554;2023-08-30T08:33:49;5.45;;;2.78;;
23322;SDS011;11833;52.554;13.554;2023-08-30T08:36:18;3.10;;;2.78;;
23322;SDS011;11833;52.554;13.554;2023-08-30T08:38:44;5.20;;;2.35;;
23322;SDS011;11833;52.554;13.554;2023-08-30T08:41:11;1.70;;;1.45;;
23322;SDS011;11833;52.554;13.554;2023-08-30T08:43:39;5.43;;;3.20;;
23322;SDS011;11833;52.554;13.554;2023-08-30T08:46:07;3.05;;;2.75;;
23322;SDS011;11833;52.554;13.554;2023-08-30T08:48:39;2.50;;;2.30;;
23322;SDS011;11833;52.554;13.554;2023-08-30T08:51:08;4.18;;;2.67;;
23322;SDS011;11833;52.554;13.554;2023-08-30T08:53:34;7.10;;;2.65;;
23322;SDS011;11833;52.554;13.554;2023-08-30T08:56:02;3.65;;;2.78;;
23322;SDS011;11833;52.554;13.554;2023-08-30T08:58:29;3.08;;;2.42;;
23322;SDS011;11833;52.554;13.554;2023-08-30T09:00:55;3.72;;;2.28;;
23322;SDS011;11833;52.554;13.554;2023-08-30T09:03:21;2.97;;;2.05;;
23322;SDS011;11833;52.554;13.554;2023-08-30T09:05:47;2.25;;;1.63;;
23322;SDS011;11833;52.554;13.554;2023-08-30T09:08:14;5.00;;;1.80;;
23322;SDS011;11833;52.554;13.554;2023-08-30T09:10:41;3.95;;;1.73;;
23322;SDS011;11833;52.554;13.554;2023-08-30T09:13:07;1.85;;;1.55;;
23322;SDS011;11833;52.554;13.554;2023-08-30T09:15:33;2.25;;;1.83;;
23322;SDS011;11833;52.554;13.554;2023-08-30T09:18:02;2.40;;;1.33;;
23322;SDS011;11833;52.554;13.554;2023-08-30T09:20:28;2.45;;;1.33;;
23322;SDS011;11833;52.554;13.554;2023-08-30T09:22:54;3.33;;;1.42;;
23322;SDS011;11833;52.554;13.554;2023-08-30T09:25:24;3.30;;;1.10;;
23322;SDS011;11833;52.554;13.554;2023-08-30T09:27:56;5.95;;;4.55;;
23322;SDS011;11833;52.554;13.554;2023-08-30T09:32:51;5.70;;;1.98;;
23322;SDS011;11833;52.554;13.554;2023-08-30T09:35:17;2.63;;;2.22;;
23322;SDS011;11833;52.554;13.554;2023-08-30T09:37:46;2.50;;;1.50;;
23322;SDS011;11833;52.554;13.554;2023-08-30T09:40:18;4.15;;;1.55;;
23322;SDS011;11833;52.554;13.554;2023-08-30T09:42:44;1.65;;;1.27;;
23322;SDS011;11833;52.554;13.554;2023-08-30T09:45:22;4.28;;;1.88;;
23322;SDS011;11833;52.554;13.554;2023-08-30T09:47:49;5.18;;;1.50;;
23322;SDS011;11833;52.554;13.554;2023-08-30T09:50:18;4.50;;;1.50;;
23322;SDS011;11833;52.554;13.554;2023-08-30T09:52:48;3.30;;;1.20;;
23322;SDS011;11833;52.554;13.554;2023-08-30T09:55:16;6.38;;;2.35;;
23322;SDS011;11833;52.554;13.554;2023-08-30T09:57:43;9.60;;;1.90;;
23322;SDS011;11833;52.554;13.554;2023-08-30T10:00:09;4.25;;;1.67;;
23322;SDS011;11833;52.554;13.554;2023-08-30T10:02:43;2.22;;;1.05;;
23322;SDS011;11833;52.554;13.554;2023-08-30T10:05:12;1.85;;;0.90;;
23322;SDS011;11833;52.554;13.554;2023-08-30T10:07:38;2.65;;;0.90;;
23322;SDS011;11833;52.554;13.554;2023-08-30T10:10:05;4.97;;;1.30;;
23322;SDS011;11833;52.554;13.554;2023-08-30T10:12:32;2.97;;;0.80;;
23322;SDS011;11833;52.554;13.554;2023-08-30T10:14:58;1.88;;;1.00;;
23322;SDS011;11833;52.554;13.554;2023-08-30T10:17:28;1.48;;;0.68;;
23322;SDS011;11833;52.554;13.554;2023-08-30T10:19:59;1.85;;;0.90;;
23322;SDS011;11833;52.554;13.554;2023-08-30T10:22:29;3.03;;;0.80;;
23322;SDS011;11833;52.554;13.554;2023-08-30T10:27:53;2.53;;;0.80;;
23322;SDS011;11833;52.554;13.554;2023-08-30T10:30:20;2.33;;;1.00;;
23322;SDS011;11833;52.554;13.554;2023-08-30T10:32:48;1.13;;;0.80;;
23322;SDS011;11833;52.554;13.554;2023-08-30T10:35:15;1.48;;;0.70;;
23322;SDS011;11833;52.554;13.554;2023-08-30T10:37:53;1.02;;;0.80;;
23322;SDS011;11833;52.554;13.554;2023-08-30T10:40:28;5.18;;;0.80;;
23322;SDS011;11833;52.554;13.554;2023-08-30T10:43:03;1.77;;;0.90;;
23322;SDS011;11833;52.554;13.554;2023-08-30T10:45:29;1.90;;;0.77;;
23322;SDS011;11833;52.554;13.554;2023-08-30T10:47:56;2.85;;;1.00;;
23322;SDS011;11833;52.554;13.554;2023-08-30T10:50:28;2.15;;;0.98;;
23322;SDS011;11833;52.554;13.554;2023-08-30T10:52:56;2.67;;;1.20;;
23322;SDS011;11833;52.554;13.554;2023-08-30T10:55:22;1.33;;;0.90;;
23322;SDS011;11833;52.554;13.554;2023-08-30T10:57:58;1.67;;;0.90;;
23322;SDS011;11833;52.554;13.554;2023-08-30T11:00:29;3.03;;;1.25;;
23322;SDS011;11833;52.554;13.554;2023-08-30T11:02:56;4.65;;;1.10;;
23322;SDS011;11833;52.554;13.554;2023-08-30T11:05:23;1.05;;;0.77;;
23322;SDS011;11833;52.554;13.554;2023-08-30T11:07:51;2.90;;;0.80;;
23322;SDS011;11833;52.554;13.554;2023-08-30T11:10:18;1.77;;;1.02;;
23322;SDS011;11833;52.554;13.554;2023-08-30T11:12:45;2.17;;;1.00;;
23322;SDS011;11833;52.554;13.554;2023-08-30T11:15:14;4.53;;;1.67;;
23322;SDS011;11833;52.554;13.554;2023-08-30T11:17:39;2.35;;;1.40;;
23322;SDS011;11833;52.554;13.554;2023-08-30T11:20:09;2.35;;;1.00;;
23322;SDS011;11833;52.554;13.554;2023-08-30T11:22:42;1.15;;;0.80;;
23322;SDS011;11833;52.554;13.554;2023-08-30T11:25:10;1.20;;;1.10;;
23322;SDS011;11833;52.554;13.554;2023-08-30T11:27:38;3.28;;;0.77;;
23322;SDS011;11833;52.554;13.554;2023-08-30T11:30:05;1.63;;;1.13;;
23322;SDS011;11833;52.554;13.554;2023-08-30T11:32:38;2.28;;;1.52;;
23322;SDS011;11833;52.554;13.554;2023-08-30T11:35:07;1.73;;;1.20;;
23322;SDS011;11833;52.554;13.554;2023-08-30T11:37:34;1.00;;;0.90;;
23322;SDS011;11833;52.554;13.554;2023-08-30T11:40:00;4.40;;;1.10;;
23322;SDS011;11833;52.554;13.554;2023-08-30T11:42:28;1.98;;;0.80;;
23322;SDS011;11833;52.554;13.554;2023-08-30T11:44:56;3.90;;;0.90;;
23322;SDS011;11833;52.554;13.554;2023-08-30T11:47:24;0.88;;;0.75;;
23322;SDS011;11833;52.554;13.554;2023-08-30T11:49:54;2.58;;;0.68;;
23322;SDS011;11833;52.554;13.554;2023-08-30T11:52:25;1.75;;;0.80;;
23322;SDS011;11833;52.554;13.554;2023-08-30T11:54:52;1.88;;;0.88;;
23322;SDS011;11833;52.554;13.554;2023-08-30T11:57:19;0.85;;;0.70;;
23322;SDS011;11833;52.554;13.554;2023-08-30T11:59:46;2.60;;;0.65;;
23322;SDS011;11833;52.554;13.554;2023-08-30T12:02:13;1.15;;;0.80;;
23322;SDS011;11833;52.554;13.554;2023-08-30T12:04:40;3.33;;;0.80;;
23322;SDS011;11833;52.554;13.554;2023-08-30T12:07:20;2.30;;;1.30;;
23322;SDS011;11833;52.554;13.554;2023-08-30T12:09:50;1.50;;;0.90;;
23322;SDS011;11833;52.554;13.554;2023-08-30T12:12:16;3.47;;;0.80;;
23322;SDS011;11833;52.554;13.554;2023-08-30T12:14:41;1.73;;;0.82;;
23322;SDS011;11833;52.554;13.554;2023-08-30T12:17:08;3.53;;;0.90;;
23322;SDS011;11833;52.554;13.554;2023-08-30T12:19:37;0.80;;;0.75;;
23322;SDS011;11833;52.554;13.554;2023-08-30T12:22:05;1.20;;;0.70;;
23322;SDS011;11833;52.554;13.554;2023-08-30T12:27:12;1.00;;;0.77;;
23322;SDS011;11833;52.554;13.554;2023-08-30T12:29:38;1.67;;;0.85;;
23322;SDS011;11833;52.554;13.554;2023-08-30T12:32:05;2.65;;;0.70;;
23322;SDS011;11833;52.554;13.554;2023-08-30T12:34:32;1.85;;;0.70;;
23322;SDS011;11833;52.554;13.554;2023-08-30T12:36:59;2.08;;;0.68;;
23322;SDS011;11833;52.554;13.554;2023-08-30T12:39:25;1.58;;;0.90;;
23322;SDS011;11833;52.554;13.554;2023-08-30T12:41:51;1.80;;;0.65;;
23322;SDS011;11833;52.554;13.554;2023-08-30T12:44:16;3.75;;;0.98;;
23322;SDS011;11833;52.554;13.554;2023-08-30T12:46:42;4.30;;;1.08;;
23322;SDS011;11833;52.554;13.554;2023-08-30T12:49:08;0.75;;;0.60;;
23322;SDS011;11833;52.554;13.554;2023-08-30T12:51:33;1.30;;;0.60;;
23322;SDS011;11833;52.554;13.554;2023-08-30T12:53:59;1.77;;;0.85;;
23322;SDS011;11833;52.554;13.554;2023-08-30T12:56:25;1.65;;;0.68;;
23322;SDS011;11833;52.554;13.554;2023-08-30T12:58:51;3.28;;;0.90;;
23322;SDS011;11833;52.554;13.554;2023-08-30T13:01:17;2.08;;;1.00;;
23322;SDS011;11833;52.554;13.554;2023-08-30T13:03:43;2.78;;;0.90;;
23322;SDS011;11833;52.554;13.554;2023-08-30T13:06:09;1.33;;;0.85;;
23322;SDS011;11833;52.554;13.554;2023-08-30T13:08:35;2.45;;;1.15;;
23322;SDS011;11833;52.554;13.554;2023-08-30T13:11:01;2.72;;;0.95;;
23322;SDS011;11833;52.554;13.554;2023-08-30T13:13:26;4.38;;;1.33;;
23322;SDS011;11833;52.554;13.554;2023-08-30T13:15:52;1.48;;;1.30;;
23322;SDS011;11833;52.554;13.554;2023-08-30T13:18:18;4.95;;;1.75;;
23322;SDS011;11833;52.554;13.554;2023-08-30T13:20:43;1.73;;;0.80;;
23322;SDS011;11833;52.554;13.554;2023-08-30T13:23:10;1.75;;;0.90;;
23322;SDS011;11833;52.554;13.554;2023-08-30T13:25:39;3.72;;;0.70;;
23322;SDS011;11833;52.554;13.554;2023-08-30T13:28:06;4.28;;;2.05;;
23322;SDS011;11833;52.554;13.554;2023-08-30T13:30:32;3.70;;;1.10;;
23322;SDS011;11833;52.554;13.554;2023-08-30T13:32:58;1.92;;;1.02;;
23322;SDS011;11833;52.554;13.554;2023-08-30T13:35:24;2.15;;;1.23;;
23322;SDS011;11833;52.554;13.554;2023-08-30T13:37:50;1.63;;;1.10;;
23322;SDS011;11833;52.554;13.554;2023-08-30T13:40:16;1.58;;;1.10;;
23322;SDS011;11833;52.554;13.554;2023-08-30T13:42:42;1.45;;;0.95;;
23322;SDS011;11833;52.554;13.554;2023-08-30T13:45:08;1.67;;;1.08;;
23322;SDS011;11833;52.554;13.554;2023-08-30T13:47:34;2.15;;;0.80;;
23322;SDS011;11833;52.554;13.554;2023-08-30T13:50:00;1.05;;;0.95;;
23322;SDS011;11833;52.554;13.554;2023-08-30T13:52:26;1.92;;;1.30;;
23322;SDS011;11833;52.554;13.554;2023-08-30T13:54:54;2.33;;;1.10;;
23322;SDS011;11833;52.554;13.554;2023-08-30T13:57:20;2.03;;;0.90;;
23322;SDS011;11833;52.554;13.554;2023-08-30T13:59:45;2.75;;;0.98;;
23322;SDS011;11833;52.554;13.554;2023-08-30T14:02:12;1.88;;;0.85;;
23322;SDS011;11833;52.554;13.554;2023-08-30T14:04:38;1.10;;;0.80;;
23322;SDS011;11833;52.554;13.554;2023-08-30T14:07:04;3.53;;;0.88;;
23322;SDS011;11833;52.554;13.554;2023-08-30T14:09:29;1.38;;;0.95;;
23322;SDS011;11833;52.554;13.554;2023-08-30T14:11:55;2.17;;;0.85;;
23322;SDS011;11833;52.554;13.554;2023-08-30T14:14:21;2.30;;;1.30;;
23322;SDS011;11833;52.554;13.554;2023-08-30T14:16:47;1.88;;;1.25;;
23322;SDS011;11833;52.554;13.554;2023-08-30T14:19:14;2.22;;;1.05;;
23322;SDS011;11833;52.554;13.554;2023-08-30T14:21:41;1.40;;;0.75;;
23322;SDS011;11833;52.554;13.554;2023-08-30T14:24:06;1.77;;;1.15;;
23322;SDS011;11833;52.554;13.554;2023-08-30T14:26:32;2.58;;;0.80;;
23322;SDS011;11833;52.554;13.554;2023-08-30T14:28:58;1.00;;;0.88;;
23322;SDS011;11833;52.554;13.554;2023-08-30T14:31:24;1.75;;;0.90;;
23322;SDS011;11833;52.554;13.554;2023-08-30T14:33:53;1.10;;;1.00;;
23322;SDS011;11833;52.554;13.554;2023-08-30T14:36:23;1.77;;;1.20;;
23322;SDS011;11833;52.554;13.554;2023-08-30T14:38:49;1.25;;;0.95;;
23322;SDS011;11833;52.554;13.554;2023-08-30T14:41:15;0.90;;;0.77;;
23322;SDS011;11833;52.554;13.554;2023-08-30T14:43:42;2.33;;;0.98;;
23322;SDS011;11833;52.554;13.554;2023-08-30T14:46:08;2.03;;;1.00;;
23322;SDS011;11833;52.554;13.554;2023-08-30T14:48:34;1.67;;;1.05;;
23322;SDS011;11833;52.554;13.554;2023-08-30T14:51:00;1.40;;;0.90;;
23322;SDS011;11833;52.554;13.554;2023-08-30T14:53:30;1.30;;;0.90;;
23322;SDS011;11833;52.554;13.554;2023-08-30T14:55:56;2.55;;;0.98;;
23322;SDS011;11833;52.554;13.554;2023-08-30T14:58:22;1.63;;;0.95;;